Latest Weather Observations for Cobar Airport

IDN60801

Issued at 8:03 pm EST Tuesday 26 July 2016 (issued every 30 minutes, with the page automatically refreshed every 10 minutes)

About weather observations | Map of weather stations | Latest weather observations for NSW | Other Formats
Station Details ID: 048237 Name: COBAR AIRPORT AWS Lat: -31.54 Lon: 145.80 Height: 218.0 m
Data from the previous 72 hours. | See also: Recent months at Cobar Airport
Date/Time
EST
Temp
°C
App
Temp
°C
Dew
Point
°C
Rel
Hum
%
Delta-T
°C
Wind Press
QNH
hPa
Press
MSL
hPa
Rain since
9am
mm
Dir  Spd
km/h
Gust
km/h
Spd
kts
Gust
kts
26/08:00pm 10.7 8.0 5.7 71 2.3 N 9 11 5 6 1017.1 1017.4 0.0
26/07:30pm 11.5 9.3 6.0 69 2.6 N 7 9 4 5 1017.1 1017.4 0.0
26/07:00pm 11.8 9.7 6.5 70 2.5 NW 7 13 4 7 1017.1 1017.4 0.0
26/06:30pm 11.6 9.0 5.9 68 2.7 NW 9 11 5 6 1016.9 1017.2 0.0
26/06:00pm 12.4 9.4 5.8 64 3.1 WNW 11 15 6 8 1016.8 1017.1 0.0
26/05:30pm 13.6 9.7 5.5 58 3.9 WNW 15 20 8 11 1016.5 1016.7 0.0
26/05:00pm 14.3 9.8 5.9 57 4.0 WNW 19 28 10 15 1016.3 1016.5 0.0
26/04:30pm 14.6 9.8 5.7 55 4.3 W 20 28 11 15 1016.4 1016.6 0.0
26/04:00pm 15.3 10.7 6.3 55 4.4 WNW 20 30 11 16 1016.4 1016.6 0.0
26/03:30pm 16.0 11.4 6.4 53 4.7 NW 20 28 11 15 1016.4 1016.6 0.0
26/03:00pm 15.3 11.7 6.6 56 4.3 NNW 15 24 8 13 1016.6 1016.9 0.0
26/02:30pm 14.5 10.3 5.8 56 4.2 NNW 17 22 9 12 1017.0 1017.3 0.0
26/02:00pm 15.3 13.2 8.1 62 3.7 NW 9 15 5 8 1017.4 1017.7 0.0
26/01:30pm 13.8 10.5 6.2 60 3.7 NNW 13 19 7 10 1018.0 1018.3 0.0
26/01:00pm 13.6 10.3 6.2 61 3.6 WNW 13 22 7 12 1018.5 1018.8 0.0
26/12:30pm 13.5 9.9 6.6 63 3.4 NW 15 22 8 12 1019.1 1019.4 0.0
26/12:00pm 13.5 10.2 6.6 63 3.3 NW 13 20 7 11 1019.7 1019.9 0.0
26/11:30am 13.0 10.5 6.4 64 3.2 NW 9 15 5 8 1020.2 1020.4 0.0
26/11:00am 12.5 10.1 7.0 69 2.7 NW 9 17 5 9 1020.5 1020.8 0.0
26/10:30am 12.1 9.5 6.2 67 2.8 NNW 9 15 5 8 1020.7 1021.0 0.0
26/10:00am 10.8 7.9 4.9 67 2.7 NW 9 13 5 7 1020.9 1021.2 0.0
26/09:30am 10.0 6.7 4.4 68 2.5 WNW 11 13 6 7 1020.9 1021.2 0.0
26/09:00am 9.5 6.9 4.3 70 2.3 NW 7 9 4 5 1020.9 1021.2 0.0
26/08:30am 8.9 6.5 5.1 77 1.7 N 7 9 4 5 1020.8 1021.1 0.0
26/08:00am 7.8 6.2 4.4 79 1.5 N 2 6 1 3 1020.8 1021.1 0.0
26/07:30am 7.4 5.0 4.4 81 1.3 NNE 6 7 3 4 1020.5 1020.8 0.0
26/07:00am 7.0 4.9 4.0 81 1.3 NNE 4 6 2 3 1020.2 1020.4 0.0
26/06:30am 6.6 5.3 4.1 84 1.1 CALM 0 0 0 0 1019.8 1020.0 0.0
26/06:00am 6.4 4.6 3.6 82 1.2 NNE 2 7 1 4 1019.4 1019.7 0.0
26/05:30am 5.7 3.1 3.4 85 1.0 NNE 6 7 3 4 1019.2 1019.5 0.0
26/05:00am 5.1 2.3 3.0 86 0.9 N 7 7 4 4 1018.8 1019.1 0.0
26/04:30am 4.8 1.5 2.5 85 0.9 NNE 9 9 5 5 1018.6 1018.9 0.0
26/04:00am 5.1 1.9 2.8 85 0.9 N 9 11 5 6 1018.6 1018.9 0.0
26/03:30am 5.0 1.8 2.9 86 0.9 N 9 11 5 6 1018.6 1018.9 0.0
26/03:00am 4.6 2.0 3.1 90 0.6 N 6 9 3 5 1018.8 1019.1 0.0
26/02:30am 4.2 2.1 1.4 82 1.1 NNW 2 6 1 3 1018.8 1019.1 0.0
26/02:00am 5.6 2.8 2.9 83 1.1 N 7 9 4 5 1018.9 1019.2 0.0
26/01:30am 5.9 3.0 2.7 80 1.3 NNW 7 9 4 5 1018.9 1019.2 0.0
26/01:00am 5.4 2.1 2.6 82 1.2 NW 9 13 5 7 1019.1 1019.4 0.0
26/12:30am 6.5 2.9 3.1 79 1.4 NNW 11 13 6 7 1019.2 1019.5 0.0
26/12:00am 6.4 2.8 3.2 80 1.4 NW 11 15 6 8 1019.4 1019.7 0.0
 
Date/Time
EST
Temp
°C
App
Temp
°C
Dew
Point
°C
Rel
Hum
%
Delta-T
°C
Wind Press
QNH
hPa
Press
MSL
hPa
Rain since
9am
mm
Dir  Spd
km/h
Gust
km/h
Spd
kts
Gust
kts
25/11:30pm 6.1 2.1 3.1 81 1.3 NNW 13 15 7 8 1019.6 1019.8 0.0
25/11:00pm 6.2 2.3 3.5 83 1.1 NNW 13 17 7 9 1019.6 1019.8 0.0
25/10:30pm 5.7 3.0 3.7 87 0.9 NNW 7 9 4 5 1019.8 1020.0 0.0
25/10:00pm 5.2 3.9 3.9 91 0.6 CALM 0 0 0 0 1019.8 1020.0 0.0
25/09:30pm 4.9 2.9 2.4 84 1.0 N 2 7 1 4 1019.6 1019.8 0.0
25/09:00pm 6.4 3.8 3.2 80 1.4 NNW 6 7 3 4 1019.0 1019.3 0.0
25/08:30pm 7.6 4.5 3.6 76 1.7 NNW 9 11 5 6 1018.9 1019.2 0.0
25/08:00pm 7.7 4.2 3.7 76 1.7 NNW 11 13 6 7 1018.6 1018.9 0.0
25/07:30pm 7.8 4.3 3.7 75 1.8 N 11 13 6 7 1018.4 1018.7 0.0
25/07:00pm 8.7 5.5 3.3 69 2.3 NNW 9 9 5 5 1018.3 1018.6 0.0
25/06:30pm 9.4 6.7 3.6 67 2.6 NW 7 9 4 5 1018.3 1018.6 0.0
25/06:00pm 10.7 6.9 3.7 62 3.1 WNW 13 15 7 8 1018.1 1018.4 0.0
25/05:30pm 11.6 7.3 3.4 57 3.7 WNW 15 19 8 10 1017.7 1018.0 0.0
25/05:00pm 12.9 8.1 2.7 50 4.5 WNW 17 26 9 14 1017.7 1018.0 0.0
25/04:30pm 13.4 8.0 2.3 47 4.9 NW 20 30 11 16 1018.0 1018.3 0.0
25/04:00pm 13.9 8.9 3.7 50 4.7 WNW 19 24 10 13 1017.8 1018.1 0.0
25/03:30pm 13.9 9.3 3.7 50 4.7 W 17 26 9 14 1017.5 1017.8 0.0
25/03:00pm 13.9 9.2 3.1 48 4.9 WNW 17 28 9 15 1017.9 1018.2 0.0
25/02:30pm 14.3 9.4 4.0 50 4.8 WNW 19 28 10 15 1018.0 1018.3 0.0
25/02:00pm 13.4 9.0 4.6 55 4.1 WNW 17 22 9 12 1018.1 1018.4 0.0
25/01:30pm 13.1 9.0 4.3 55 4.1 WNW 15 22 8 12 1018.4 1018.7 0.0
25/01:00pm 12.9 9.2 4.3 56 4.0 W 13 24 7 13 1018.7 1019.0 0.0
25/12:30pm 12.4 7.9 4.1 57 3.8 WNW 17 22 9 12 1019.2 1019.5 0.0
25/12:00pm 11.8 7.7 4.1 59 3.5 WSW 15 24 8 13 1019.6 1019.8 0.0
25/11:30am 11.7 7.7 4.7 62 3.2 WSW 15 22 8 12 1019.9 1020.1 0.0
25/11:00am 11.3 6.5 4.5 63 3.1 W 19 26 10 14 1020.2 1020.4 0.0
25/10:30am 11.4 7.1 5.3 66 2.8 SW 17 24 9 13 1020.3 1020.5 0.0
25/10:00am 10.7 5.7 4.6 66 2.8 WSW 20 26 11 14 1020.3 1020.5 0.0
25/09:30am 9.9 5.0 4.3 68 2.5 WSW 19 26 10 14 1020.1 1020.3 0.0
25/09:00am 8.8 4.9 3.6 70 2.3 W 13 20 7 11 1019.9 1020.1 0.0
25/08:30am 6.8 3.6 3.1 77 1.6 WNW 9 13 5 7 1019.4 1019.7 0.0
25/08:00am 5.3 2.5 3.2 86 0.9 NNW 7 11 4 6 1019.0 1019.3 0.0
25/07:30am 4.4 1.1 2.3 86 0.9 NW 9 9 5 5 1018.8 1019.1 0.0
25/07:00am 3.8 0.7 1.5 85 0.9 WNW 7 7 4 4 1018.4 1018.7 0.0
25/06:30am 4.3 0.5 2.0 85 0.9 WNW 11 15 6 8 1018.2 1018.5 0.0
25/06:00am 4.5 1.1 2.0 84 1.0 NW 9 13 5 7 1017.9 1018.2 0.0
25/05:30am 4.6 0.8 1.8 82 1.1 NW 11 13 6 7 1017.4 1017.7 0.0
25/05:00am 4.6 1.2 1.8 82 1.1 NW 9 11 5 6 1017.1 1017.4 0.0
25/04:30am 5.1 1.7 2.1 81 1.2 NW 9 11 5 6 1016.8 1017.1 0.0
25/04:00am 5.5 2.1 2.0 78 1.4 NNW 9 11 5 6 1016.5 1016.7 0.0
25/03:30am 5.9 2.5 2.0 76 1.6 NW 9 9 5 5 1016.5 1016.7 0.0
25/03:00am 5.6 2.6 1.9 77 1.5 WNW 7 9 4 5 1016.4 1016.6 0.0
25/02:30am 6.3 2.6 2.4 76 1.6 WNW 11 13 6 7 1016.5 1016.7 0.0
25/02:00am 6.5 3.2 2.2 74 1.8 WNW 9 13 5 7 1016.5 1016.7 0.0
25/01:30am 7.2 3.9 2.5 72 2.0 W 9 13 5 7 1016.4 1016.6 0.0
25/01:00am 7.6 3.9 2.5 70 2.1 WSW 11 15 6 8 1016.4 1016.6 0.0
25/12:30am 8.0 4.4 2.9 70 2.2 W 11 17 6 9 1016.4 1016.6 0.0
25/12:00am 8.4 4.4 3.1 69 2.3 W 13 19 7 10 1016.3 1016.5 0.0
 
Date/Time
EST
Temp
°C
App
Temp
°C
Dew
Point
°C
Rel
Hum
%
Delta-T
°C
Wind Press
QNH
hPa
Press
MSL
hPa
Rain since
9am
mm
Dir  Spd
km/h
Gust
km/h
Spd
kts
Gust
kts
24/11:30pm 9.1 5.2 3.5 68 2.5 WSW 13 19 7 10 1016.1 1016.3 0.0
24/11:00pm 7.6 4.4 3.3 74 1.8 W 9 13 5 7 1016.0 1016.2 0.0
24/10:30pm 7.7 5.0 3.9 77 1.7 NW 7 11 4 6 1015.9 1016.1 0.0
24/10:00pm 8.0 5.3 3.7 74 1.9 W 7 7 4 4 1015.7 1015.9 0.0
24/09:30pm 9.1 6.7 4.3 72 2.1 WNW 6 6 3 3 1015.4 1015.6 0.0
24/09:00pm 9.2 6.0 3.2 66 2.6 NNW 9 13 5 7 1015.2 1015.4 0.0
24/08:30pm 10.6 7.6 4.1 64 2.9 NNW 9 11 5 6 1014.9 1015.1 0.0
24/08:00pm 10.7 7.5 3.3 60 3.3 WNW 9 13 5 7 1014.8 1015.0 0.0
24/07:30pm 11.9 7.2 3.2 55 3.9 WNW 17 20 9 11 1014.7 1014.9 0.0
24/07:00pm 12.9 7.7 3.3 52 4.3 WNW 20 35 11 19 1014.0 1014.3 0.0
24/06:30pm 12.4 9.1 4.4 58 3.7 NW 11 15 6 8 1013.4 1013.7 0.0
24/06:00pm 12.6 8.9 4.6 58 3.7 NNW 13 19 7 10 1013.2 1013.5 0.0
24/05:30pm 13.2 9.1 4.1 54 4.2 NNW 15 22 8 12 1012.9 1013.2 0.0
24/05:00pm 13.9 9.0 3.9 51 4.6 NNW 19 28 10 15 1012.8 1013.1 0.0
24/04:30pm 14.1 9.2 4.1 51 4.6 NW 19 28 10 15 1013.0 1013.3 0.0
24/04:00pm 14.2 8.3 3.9 50 4.8 NW 24 33 13 18 1013.1 1013.4 0.0
24/03:30pm 14.3 8.4 4.0 50 4.8 NW 24 35 13 19 1013.0 1013.3 0.0
24/03:00pm 14.5 8.6 3.9 49 4.9 NNW 24 33 13 18 1013.1 1013.4 0.0
24/02:30pm 14.0 7.7 3.5 49 4.8 NNW 26 35 14 19 1012.9 1013.2 0.0
24/02:00pm 14.9 8.3 4.3 49 5.0 NNW 28 37 15 20 1012.9 1013.2 0.0
24/01:30pm 14.6 9.1 4.0 49 4.9 NNW 22 33 12 18 1013.2 1013.5 0.0
24/01:00pm 14.5 8.3 4.5 51 4.7 N 26 33 14 18 1014.4 1014.7 0.0
24/12:30pm 14.2 9.2 4.5 52 4.5 NNW 20 30 11 16 1015.4 1015.6 0.0
24/12:00pm 13.9 8.9 4.8 54 4.3 N 20 28 11 15 1015.7 1015.9 0.0
24/11:30am 12.9 7.6 5.1 59 3.7 NNE 22 30 12 16 1016.1 1016.3 0.0
24/11:00am 11.9 6.6 5.1 63 3.2 N 22 28 12 15 1016.8 1017.1 0.0
24/10:30am 11.2 6.3 5.1 66 2.8 NNE 20 26 11 14 1016.9 1017.2 0.0
24/10:00am 10.3 6.0 5.1 70 2.4 NNE 17 22 9 12 1017.1 1017.4 0.0
24/09:30am 9.3 5.9 6.0 80 1.5 NE 13 17 7 9 1017.2 1017.5 0.0
24/09:00am 8.2 5.0 6.8 91 0.7 NE 13 17 7 9 1017.1 1017.4 0.0
24/08:30am 7.1 4.6 6.5 96 0.3 NE 9 13 5 7 1017.3 1017.6 0.0
24/08:00am 6.5 3.9 6.1 97 0.2 NE 9 11 5 6 1017.1 1017.4 0.0
24/07:30am 6.2 3.9 5.9 98 0.1 NE 7 11 4 6 1017.0 1017.3 0.0
24/07:00am 5.9 3.2 5.8 99 0.0 NE 9 11 5 6 1016.8 1017.1 0.0
24/06:30am 5.4 2.6 5.3 99 0.0 NE 9 11 5 6 1016.3 1016.5 0.0
24/06:00am 5.0 2.5 4.9 99 0.0 ENE 7 7 4 4 1016.2 1016.4 0.0
24/05:30am 4.6 2.2 4.5 99 0.0 NE 6 7 3 4 1016.1 1016.3 0.0
24/05:00am 5.0 2.7 4.9 99 0.0 NE 6 7 3 4 1015.9 1016.1 0.0
24/04:30am 5.0 2.1 4.9 99 0.0 NE 9 11 5 6 1015.6 1015.8 0.0
24/04:00am 5.2 3.0 5.1 99 0.0 ENE 6 7 3 4 1015.9 1016.1 0.0
24/03:30am 5.1 4.0 5.0 99 0.0 CALM 0 0 0 0 1016.1 1016.3 0.0
24/03:00am 5.5 3.7 5.4 99 0.0 ENE 4 6 2 3 1016.2 1016.4 0.0
24/02:30am 5.8 4.4 5.7 99 0.0 ENE 2 6 1 3 1016.1 1016.3 0.0
24/02:00am 5.9 3.8 5.8 99 0.0 ENE 6 7 3 4 1016.3 1016.5 0.0
24/01:30am 5.8 4.1 5.7 99 0.0 NE 4 7 2 4 1016.5 1016.7 0.0
24/01:00am 5.6 3.4 5.5 99 0.0 NE 6 7 3 4 1016.6 1016.9 0.0
24/12:30am 5.2 3.3 4.9 98 0.1 NE 4 7 2 4 1017.2 1017.5 0.0
24/12:00am 5.1 3.9 4.8 98 0.1 CALM 0 7 0 4 1017.1 1017.4 0.0
 
Date/Time
EST
Temp
°C
App
Temp
°C
Dew
Point
°C
Rel
Hum
%
Delta-T
°C
Wind Press
QNH
hPa
Press
MSL
hPa
Rain since
9am
mm
Dir  Spd
km/h
Gust
km/h
Spd
kts
Gust
kts
23/11:30pm 4.9 3.6 4.3 96 0.3 CALM 0 0 0 0 1017.6 1017.9 0.0
23/11:00pm 5.8 4.8 5.4 97 0.2 CALM 0 0 0 0 1017.6 1017.9 0.0
23/10:30pm 6.0 3.8 5.4 96 0.3 NNE 6 7 3 4 1017.3 1017.6 0.0
23/10:00pm 6.4 4.3 5.8 96 0.3 NE 6 9 3 5 1017.2 1017.5 0.0
23/09:30pm 6.5 5.6 5.9 96 0.3 CALM 0 0 0 0 1017.2 1017.5 0.0
23/09:00pm 6.2 5.1 5.3 94 0.4 CALM 0 0 0 0 1017.5 1017.8 0.0
23/08:30pm 6.6 5.6 5.4 92 0.5 CALM 0 0 0 0 1017.3 1017.6 0.0

Other Formats:

Comma delimited format used in spreadsheet applications
http://www.bom.gov.au/fwo/IDN60801/IDN60801.94710.axf

JavaScript Object Notation format (JSON) in row-major order
http://www.bom.gov.au/fwo/IDN60801/IDN60801.94710.json